sensor_id;sensor_type;location;lat;lon;timestamp;P1;durP1;ratioP1;P2;durP2;ratioP2
34960;SDS011;30789;52.030;7.110;2022-07-21T00:00:47;11.50;;;8.65;;
34960;SDS011;30789;52.030;7.110;2022-07-21T00:03:13;12.50;;;8.32;;
34960;SDS011;30789;52.030;7.110;2022-07-21T00:05:40;10.02;;;7.90;;
34960;SDS011;30789;52.030;7.110;2022-07-21T00:08:06;13.60;;;8.95;;
34960;SDS011;30789;52.030;7.110;2022-07-21T00:10:32;9.40;;;8.23;;
34960;SDS011;30789;52.030;7.110;2022-07-21T00:12:59;11.68;;;8.55;;
34960;SDS011;30789;52.030;7.110;2022-07-21T00:15:27;10.80;;;8.68;;
34960;SDS011;30789;52.030;7.110;2022-07-21T00:17:53;10.13;;;8.32;;
34960;SDS011;30789;52.030;7.110;2022-07-21T00:20:20;10.77;;;8.25;;
34960;SDS011;30789;52.030;7.110;2022-07-21T00:22:46;9.93;;;8.70;;
34960;SDS011;30789;52.030;7.110;2022-07-21T00:25:13;9.73;;;8.73;;
34960;SDS011;30789;52.030;7.110;2022-07-21T00:27:40;11.07;;;8.73;;
34960;SDS011;30789;52.030;7.110;2022-07-21T00:30:07;10.50;;;8.32;;
34960;SDS011;30789;52.030;7.110;2022-07-21T00:32:35;13.82;;;9.70;;
34960;SDS011;30789;52.030;7.110;2022-07-21T00:35:01;10.50;;;8.07;;
34960;SDS011;30789;52.030;7.110;2022-07-21T00:37:28;12.07;;;9.90;;
34960;SDS011;30789;52.030;7.110;2022-07-21T00:39:54;13.90;;;9.95;;
34960;SDS011;30789;52.030;7.110;2022-07-21T00:42:21;12.35;;;9.63;;
34960;SDS011;30789;52.030;7.110;2022-07-21T00:44:48;14.07;;;9.77;;
34960;SDS011;30789;52.030;7.110;2022-07-21T00:47:14;12.32;;;9.27;;
34960;SDS011;30789;52.030;7.110;2022-07-21T00:49:42;14.43;;;10.07;;
34960;SDS011;30789;52.030;7.110;2022-07-21T00:52:09;13.13;;;9.40;;
34960;SDS011;30789;52.030;7.110;2022-07-21T00:54:36;12.55;;;8.75;;
34960;SDS011;30789;52.030;7.110;2022-07-21T00:57:02;12.07;;;9.18;;
34960;SDS011;30789;52.030;7.110;2022-07-21T00:59:29;12.90;;;9.57;;
34960;SDS011;30789;52.030;7.110;2022-07-21T01:01:55;12.48;;;9.13;;
34960;SDS011;30789;52.030;7.110;2022-07-21T01:04:21;11.88;;;8.70;;
34960;SDS011;30789;52.030;7.110;2022-07-21T01:06:49;12.80;;;10.35;;
34960;SDS011;30789;52.030;7.110;2022-07-21T01:09:15;12.07;;;8.77;;
34960;SDS011;30789;52.030;7.110;2022-07-21T01:11:42;11.95;;;9.30;;
34960;SDS011;30789;52.030;7.110;2022-07-21T01:14:09;12.00;;;9.40;;
34960;SDS011;30789;52.030;7.110;2022-07-21T01:16:35;12.95;;;9.68;;
34960;SDS011;30789;52.030;7.110;2022-07-21T01:19:01;10.75;;;8.90;;
34960;SDS011;30789;52.030;7.110;2022-07-21T01:21:31;13.23;;;8.75;;
34960;SDS011;30789;52.030;7.110;2022-07-21T01:23:57;14.07;;;9.35;;
34960;SDS011;30789;52.030;7.110;2022-07-21T01:26:24;12.75;;;9.20;;
34960;SDS011;30789;52.030;7.110;2022-07-21T01:28:50;11.65;;;9.32;;
34960;SDS011;30789;52.030;7.110;2022-07-21T01:31:16;11.90;;;9.30;;
34960;SDS011;30789;52.030;7.110;2022-07-21T01:33:43;13.45;;;9.88;;
34960;SDS011;30789;52.030;7.110;2022-07-21T01:36:09;11.65;;;9.65;;
34960;SDS011;30789;52.030;7.110;2022-07-21T01:38:37;13.30;;;9.48;;
34960;SDS011;30789;52.030;7.110;2022-07-21T01:41:21;12.48;;;9.13;;
34960;SDS011;30789;52.030;7.110;2022-07-21T01:43:58;12.60;;;9.15;;
34960;SDS011;30789;52.030;7.110;2022-07-21T01:46:26;11.27;;;8.85;;
34960;SDS011;30789;52.030;7.110;2022-07-21T01:48:52;12.68;;;8.43;;
34960;SDS011;30789;52.030;7.110;2022-07-21T01:51:18;9.65;;;7.72;;
34960;SDS011;30789;52.030;7.110;2022-07-21T01:53:46;10.82;;;8.35;;
34960;SDS011;30789;52.030;7.110;2022-07-21T01:56:13;10.65;;;8.15;;
34960;SDS011;30789;52.030;7.110;2022-07-21T01:58:39;11.60;;;8.85;;
34960;SDS011;30789;52.030;7.110;2022-07-21T02:01:05;11.05;;;8.93;;
34960;SDS011;30789;52.030;7.110;2022-07-21T02:03:32;11.60;;;8.85;;
34960;SDS011;30789;52.030;7.110;2022-07-21T02:06:01;12.50;;;9.68;;
34960;SDS011;30789;52.030;7.110;2022-07-21T02:08:28;10.40;;;8.48;;
34960;SDS011;30789;52.030;7.110;2022-07-21T02:10:55;10.95;;;8.38;;
34960;SDS011;30789;52.030;7.110;2022-07-21T02:13:22;13.27;;;8.95;;
34960;SDS011;30789;52.030;7.110;2022-07-21T02:15:48;11.55;;;8.68;;
34960;SDS011;30789;52.030;7.110;2022-07-21T02:18:15;9.82;;;7.90;;
34960;SDS011;30789;52.030;7.110;2022-07-21T02:20:41;12.43;;;8.25;;
34960;SDS011;30789;52.030;7.110;2022-07-21T02:23:09;9.02;;;7.53;;
34960;SDS011;30789;52.030;7.110;2022-07-21T02:25:36;8.13;;;7.03;;
34960;SDS011;30789;52.030;7.110;2022-07-21T02:28:04;8.85;;;7.40;;
34960;SDS011;30789;52.030;7.110;2022-07-21T02:30:30;8.85;;;6.32;;
34960;SDS011;30789;52.030;7.110;2022-07-21T02:32:56;7.30;;;6.00;;
34960;SDS011;30789;52.030;7.110;2022-07-21T02:35:23;7.60;;;6.35;;
34960;SDS011;30789;52.030;7.110;2022-07-21T02:37:49;9.38;;;5.82;;
34960;SDS011;30789;52.030;7.110;2022-07-21T02:40:15;7.90;;;5.60;;
34960;SDS011;30789;52.030;7.110;2022-07-21T02:42:42;6.95;;;5.97;;
34960;SDS011;30789;52.030;7.110;2022-07-21T02:45:10;6.05;;;5.25;;
34960;SDS011;30789;52.030;7.110;2022-07-21T02:47:49;10.18;;;6.47;;
34960;SDS011;30789;52.030;7.110;2022-07-21T02:50:16;6.78;;;6.07;;
34960;SDS011;30789;52.030;7.110;2022-07-21T02:52:42;8.27;;;5.57;;
34960;SDS011;30789;52.030;7.110;2022-07-21T02:55:09;7.97;;;6.35;;
34960;SDS011;30789;52.030;7.110;2022-07-21T02:57:35;8.20;;;6.20;;
34960;SDS011;30789;52.030;7.110;2022-07-21T03:00:02;6.35;;;5.30;;
34960;SDS011;30789;52.030;7.110;2022-07-21T03:02:30;7.57;;;6.55;;
34960;SDS011;30789;52.030;7.110;2022-07-21T03:04:56;9.38;;;6.70;;
34960;SDS011;30789;52.030;7.110;2022-07-21T03:07:22;8.57;;;6.47;;
34960;SDS011;30789;52.030;7.110;2022-07-21T03:09:49;8.95;;;6.43;;
34960;SDS011;30789;52.030;7.110;2022-07-21T03:12:15;9.32;;;6.88;;
34960;SDS011;30789;52.030;7.110;2022-07-21T03:14:41;8.60;;;6.53;;
34960;SDS011;30789;52.030;7.110;2022-07-21T03:17:08;8.45;;;7.25;;
34960;SDS011;30789;52.030;7.110;2022-07-21T03:19:35;11.20;;;6.47;;
34960;SDS011;30789;52.030;7.110;2022-07-21T03:22:01;7.65;;;6.65;;
34960;SDS011;30789;52.030;7.110;2022-07-21T03:24:28;8.95;;;6.72;;
34960;SDS011;30789;52.030;7.110;2022-07-21T03:26:55;8.65;;;7.57;;
34960;SDS011;30789;52.030;7.110;2022-07-21T03:29:21;9.10;;;7.18;;
34960;SDS011;30789;52.030;7.110;2022-07-21T03:31:47;8.75;;;7.78;;
34960;SDS011;30789;52.030;7.110;2022-07-21T03:34:14;10.30;;;8.00;;
34960;SDS011;30789;52.030;7.110;2022-07-21T03:36:41;9.73;;;7.93;;
34960;SDS011;30789;52.030;7.110;2022-07-21T03:39:08;10.88;;;8.57;;
34960;SDS011;30789;52.030;7.110;2022-07-21T03:41:34;10.73;;;8.20;;
34960;SDS011;30789;52.030;7.110;2022-07-21T03:44:00;13.52;;;8.57;;
34960;SDS011;30789;52.030;7.110;2022-07-21T03:46:26;11.43;;;9.02;;
34960;SDS011;30789;52.030;7.110;2022-07-21T03:48:53;12.02;;;9.35;;
34960;SDS011;30789;52.030;7.110;2022-07-21T03:51:19;11.98;;;8.75;;
34960;SDS011;30789;52.030;7.110;2022-07-21T03:53:47;10.63;;;8.57;;
34960;SDS011;30789;52.030;7.110;2022-07-21T03:56:14;10.80;;;7.88;;
34960;SDS011;30789;52.030;7.110;2022-07-21T03:58:40;13.02;;;9.05;;
34960;SDS011;30789;52.030;7.110;2022-07-21T04:01:07;11.00;;;8.43;;
34960;SDS011;30789;52.030;7.110;2022-07-21T04:03:33;13.40;;;9.38;;
34960;SDS011;30789;52.030;7.110;2022-07-21T04:06:00;11.00;;;8.85;;
34960;SDS011;30789;52.030;7.110;2022-07-21T04:08:26;9.45;;;8.40;;
34960;SDS011;30789;52.030;7.110;2022-07-21T04:10:54;10.43;;;8.45;;
34960;SDS011;30789;52.030;7.110;2022-07-21T04:13:23;12.07;;;8.27;;
34960;SDS011;30789;52.030;7.110;2022-07-21T04:15:49;10.68;;;8.75;;
34960;SDS011;30789;52.030;7.110;2022-07-21T04:18:15;10.48;;;8.48;;
34960;SDS011;30789;52.030;7.110;2022-07-21T04:20:42;16.60;;;8.88;;
34960;SDS011;30789;52.030;7.110;2022-07-21T04:23:08;12.18;;;9.07;;
34960;SDS011;30789;52.030;7.110;2022-07-21T04:25:34;12.30;;;8.38;;
34960;SDS011;30789;52.030;7.110;2022-07-21T04:28:05;10.63;;;8.68;;
34960;SDS011;30789;52.030;7.110;2022-07-21T04:30:32;11.60;;;8.45;;
34960;SDS011;30789;52.030;7.110;2022-07-21T04:32:59;10.52;;;8.75;;
34960;SDS011;30789;52.030;7.110;2022-07-21T04:35:25;12.43;;;8.98;;
34960;SDS011;30789;52.030;7.110;2022-07-21T04:37:51;13.35;;;9.10;;
34960;SDS011;30789;52.030;7.110;2022-07-21T04:40:18;9.98;;;8.18;;
34960;SDS011;30789;52.030;7.110;2022-07-21T04:42:44;10.48;;;9.32;;
34960;SDS011;30789;52.030;7.110;2022-07-21T04:45:12;12.75;;;8.63;;
34960;SDS011;30789;52.030;7.110;2022-07-21T04:47:42;10.73;;;9.18;;
34960;SDS011;30789;52.030;7.110;2022-07-21T04:50:09;11.75;;;9.55;;
34960;SDS011;30789;52.030;7.110;2022-07-21T04:52:35;10.98;;;8.75;;
34960;SDS011;30789;52.030;7.110;2022-07-21T04:55:02;13.70;;;9.32;;
34960;SDS011;30789;52.030;7.110;2022-07-21T04:57:28;11.25;;;8.63;;
34960;SDS011;30789;52.030;7.110;2022-07-21T04:59:54;12.48;;;9.27;;
34960;SDS011;30789;52.030;7.110;2022-07-21T05:02:22;11.75;;;8.95;;
34960;SDS011;30789;52.030;7.110;2022-07-21T05:04:48;13.23;;;9.13;;
34960;SDS011;30789;52.030;7.110;2022-07-21T05:07:15;14.77;;;10.13;;
34960;SDS011;30789;52.030;7.110;2022-07-21T05:09:41;13.93;;;10.35;;
34960;SDS011;30789;52.030;7.110;2022-07-21T05:12:07;14.05;;;10.68;;
34960;SDS011;30789;52.030;7.110;2022-07-21T05:14:34;13.10;;;11.13;;
34960;SDS011;30789;52.030;7.110;2022-07-21T05:17:00;14.27;;;11.02;;
34960;SDS011;30789;52.030;7.110;2022-07-21T05:19:27;15.07;;;11.63;;
34960;SDS011;30789;52.030;7.110;2022-07-21T05:21:54;14.48;;;10.55;;
34960;SDS011;30789;52.030;7.110;2022-07-21T05:24:20;16.80;;;11.30;;
34960;SDS011;30789;52.030;7.110;2022-07-21T05:26:47;17.95;;;12.52;;
34960;SDS011;30789;52.030;7.110;2022-07-21T05:29:13;16.08;;;12.10;;
34960;SDS011;30789;52.030;7.110;2022-07-21T05:31:39;16.60;;;12.25;;
34960;SDS011;30789;52.030;7.110;2022-07-21T05:34:05;19.77;;;13.80;;
34960;SDS011;30789;52.030;7.110;2022-07-21T05:36:33;18.55;;;14.07;;
34960;SDS011;30789;52.030;7.110;2022-07-21T05:38:59;19.13;;;14.35;;
34960;SDS011;30789;52.030;7.110;2022-07-21T05:41:26;22.27;;;14.20;;
34960;SDS011;30789;52.030;7.110;2022-07-21T05:43:52;17.00;;;13.52;;
34960;SDS011;30789;52.030;7.110;2022-07-21T05:46:18;18.15;;;14.57;;
34960;SDS011;30789;52.030;7.110;2022-07-21T05:48:45;19.70;;;14.18;;
34960;SDS011;30789;52.030;7.110;2022-07-21T05:51:11;21.35;;;14.80;;
34960;SDS011;30789;52.030;7.110;2022-07-21T05:53:39;19.98;;;14.38;;
34960;SDS011;30789;52.030;7.110;2022-07-21T05:56:05;21.25;;;14.68;;
34960;SDS011;30789;52.030;7.110;2022-07-21T05:58:32;19.20;;;14.63;;
34960;SDS011;30789;52.030;7.110;2022-07-21T06:00:59;19.52;;;15.68;;
34960;SDS011;30789;52.030;7.110;2022-07-21T06:03:34;20.50;;;14.50;;
34960;SDS011;30789;52.030;7.110;2022-07-21T06:06:00;19.48;;;13.93;;
34960;SDS011;30789;52.030;7.110;2022-07-21T06:08:27;18.05;;;14.32;;
34960;SDS011;30789;52.030;7.110;2022-07-21T06:10:54;22.92;;;15.07;;
34960;SDS011;30789;52.030;7.110;2022-07-21T06:13:21;19.63;;;14.93;;
34960;SDS011;30789;52.030;7.110;2022-07-21T06:15:47;18.65;;;14.55;;
34960;SDS011;30789;52.030;7.110;2022-07-21T06:18:13;19.88;;;15.50;;
34960;SDS011;30789;52.030;7.110;2022-07-21T06:20:40;19.50;;;15.10;;
34960;SDS011;30789;52.030;7.110;2022-07-21T06:23:06;19.58;;;14.50;;
34960;SDS011;30789;52.030;7.110;2022-07-21T06:25:32;18.38;;;13.80;;
34960;SDS011;30789;52.030;7.110;2022-07-21T06:28:00;17.80;;;13.15;;
34960;SDS011;30789;52.030;7.110;2022-07-21T06:30:26;19.75;;;13.57;;
34960;SDS011;30789;52.030;7.110;2022-07-21T06:32:53;19.40;;;13.57;;
34960;SDS011;30789;52.030;7.110;2022-07-21T06:35:19;18.63;;;13.95;;
34960;SDS011;30789;52.030;7.110;2022-07-21T06:37:45;16.75;;;13.88;;
34960;SDS011;30789;52.030;7.110;2022-07-21T06:40:12;17.50;;;13.68;;
34960;SDS011;30789;52.030;7.110;2022-07-21T06:42:38;16.48;;;13.25;;
34960;SDS011;30789;52.030;7.110;2022-07-21T06:45:06;16.33;;;13.93;;
34960;SDS011;30789;52.030;7.110;2022-07-21T06:47:33;15.52;;;12.25;;
34960;SDS011;30789;52.030;7.110;2022-07-21T06:49:59;16.50;;;14.07;;
34960;SDS011;30789;52.030;7.110;2022-07-21T06:52:27;14.93;;;12.85;;
34960;SDS011;30789;52.030;7.110;2022-07-21T06:54:54;18.27;;;13.45;;
34960;SDS011;30789;52.030;7.110;2022-07-21T06:57:20;17.23;;;13.40;;
34960;SDS011;30789;52.030;7.110;2022-07-21T06:59:46;19.60;;;14.18;;
34960;SDS011;30789;52.030;7.110;2022-07-21T07:02:14;17.67;;;13.48;;
34960;SDS011;30789;52.030;7.110;2022-07-21T07:04:40;20.17;;;14.02;;
34960;SDS011;30789;52.030;7.110;2022-07-21T07:07:08;17.92;;;13.63;;
34960;SDS011;30789;52.030;7.110;2022-07-21T07:09:35;22.38;;;14.05;;
34960;SDS011;30789;52.030;7.110;2022-07-21T07:12:02;16.95;;;13.90;;
34960;SDS011;30789;52.030;7.110;2022-07-21T07:14:30;18.83;;;14.07;;
34960;SDS011;30789;52.030;7.110;2022-07-21T07:16:56;17.38;;;14.05;;
34960;SDS011;30789;52.030;7.110;2022-07-21T07:19:24;21.05;;;15.25;;
34960;SDS011;30789;52.030;7.110;2022-07-21T07:21:50;17.35;;;14.52;;
34960;SDS011;30789;52.030;7.110;2022-07-21T07:24:17;19.00;;;14.20;;
34960;SDS011;30789;52.030;7.110;2022-07-21T07:26:43;18.92;;;13.68;;
34960;SDS011;30789;52.030;7.110;2022-07-21T07:29:09;15.82;;;13.77;;
34960;SDS011;30789;52.030;7.110;2022-07-21T07:31:36;16.90;;;13.00;;
34960;SDS011;30789;52.030;7.110;2022-07-21T07:34:02;17.63;;;13.32;;
34960;SDS011;30789;52.030;7.110;2022-07-21T07:36:30;18.90;;;13.43;;
34960;SDS011;30789;52.030;7.110;2022-07-21T07:38:57;17.05;;;12.65;;
34960;SDS011;30789;52.030;7.110;2022-07-21T07:41:24;19.77;;;13.73;;
34960;SDS011;30789;52.030;7.110;2022-07-21T07:43:50;20.00;;;14.13;;
34960;SDS011;30789;52.030;7.110;2022-07-21T07:46:17;17.35;;;13.57;;
34960;SDS011;30789;52.030;7.110;2022-07-21T07:48:43;19.23;;;13.00;;
34960;SDS011;30789;52.030;7.110;2022-07-21T07:51:10;17.98;;;13.88;;
34960;SDS011;30789;52.030;7.110;2022-07-21T07:53:38;19.40;;;13.40;;
34960;SDS011;30789;52.030;7.110;2022-07-21T07:56:04;18.30;;;13.77;;
34960;SDS011;30789;52.030;7.110;2022-07-21T07:58:31;22.05;;;14.13;;
34960;SDS011;30789;52.030;7.110;2022-07-21T08:00:58;19.30;;;14.57;;
34960;SDS011;30789;52.030;7.110;2022-07-21T08:03:24;19.83;;;14.20;;
34960;SDS011;30789;52.030;7.110;2022-07-21T08:05:51;19.95;;;13.75;;
34960;SDS011;30789;52.030;7.110;2022-07-21T08:08:17;23.10;;;14.85;;
34960;SDS011;30789;52.030;7.110;2022-07-21T08:10:45;16.95;;;13.50;;
34960;SDS011;30789;52.030;7.110;2022-07-21T08:13:12;18.65;;;13.05;;
34960;SDS011;30789;52.030;7.110;2022-07-21T08:15:38;19.00;;;14.43;;
34960;SDS011;30789;52.030;7.110;2022-07-21T08:18:05;18.67;;;14.13;;
34960;SDS011;30789;52.030;7.110;2022-07-21T08:20:31;21.67;;;14.95;;
34960;SDS011;30789;52.030;7.110;2022-07-21T08:22:58;22.70;;;15.02;;
34960;SDS011;30789;52.030;7.110;2022-07-21T08:25:24;18.65;;;14.50;;
34960;SDS011;30789;52.030;7.110;2022-07-21T08:27:52;24.38;;;16.00;;
34960;SDS011;30789;52.030;7.110;2022-07-21T08:30:18;27.10;;;17.70;;
34960;SDS011;30789;52.030;7.110;2022-07-21T08:32:44;22.33;;;15.15;;
34960;SDS011;30789;52.030;7.110;2022-07-21T08:35:11;22.75;;;16.50;;
34960;SDS011;30789;52.030;7.110;2022-07-21T08:37:38;28.30;;;17.48;;
34960;SDS011;30789;52.030;7.110;2022-07-21T08:40:05;27.10;;;17.55;;
34960;SDS011;30789;52.030;7.110;2022-07-21T08:42:32;23.70;;;16.90;;
34960;SDS011;30789;52.030;7.110;2022-07-21T08:44:59;25.58;;;16.90;;
34960;SDS011;30789;52.030;7.110;2022-07-21T08:47:26;27.65;;;18.92;;
34960;SDS011;30789;52.030;7.110;2022-07-21T08:49:53;24.92;;;17.25;;
34960;SDS011;30789;52.030;7.110;2022-07-21T08:52:19;24.85;;;18.17;;
34960;SDS011;30789;52.030;7.110;2022-07-21T08:54:45;27.10;;;17.70;;
34960;SDS011;30789;52.030;7.110;2022-07-21T08:57:12;25.73;;;17.77;;
34960;SDS011;30789;52.030;7.110;2022-07-21T08:59:38;22.40;;;16.85;;
34960;SDS011;30789;52.030;7.110;2022-07-21T09:02:06;21.48;;;15.65;;
34960;SDS011;30789;52.030;7.110;2022-07-21T09:04:50;22.55;;;16.92;;
34960;SDS011;30789;52.030;7.110;2022-07-21T09:07:16;22.02;;;16.15;;
34960;SDS011;30789;52.030;7.110;2022-07-21T09:09:53;19.63;;;15.32;;
34960;SDS011;30789;52.030;7.110;2022-07-21T09:12:20;21.02;;;14.25;;
34960;SDS011;30789;52.030;7.110;2022-07-21T09:14:46;19.50;;;15.02;;
34960;SDS011;30789;52.030;7.110;2022-07-21T09:17:15;18.77;;;13.23;;
34960;SDS011;30789;52.030;7.110;2022-07-21T09:19:43;18.13;;;13.02;;
34960;SDS011;30789;52.030;7.110;2022-07-21T09:22:12;15.70;;;11.82;;
34960;SDS011;30789;52.030;7.110;2022-07-21T09:24:39;12.70;;;10.52;;
34960;SDS011;30789;52.030;7.110;2022-07-21T09:27:09;13.95;;;9.27;;
34960;SDS011;30789;52.030;7.110;2022-07-21T09:29:40;18.63;;;10.32;;
34960;SDS011;30789;52.030;7.110;2022-07-21T09:32:15;14.50;;;9.10;;
34960;SDS011;30789;52.030;7.110;2022-07-21T09:34:42;9.70;;;8.23;;
34960;SDS011;30789;52.030;7.110;2022-07-21T09:37:08;12.23;;;8.68;;
34960;SDS011;30789;52.030;7.110;2022-07-21T09:39:42;9.00;;;7.65;;
34960;SDS011;30789;52.030;7.110;2022-07-21T09:42:19;9.70;;;7.75;;
34960;SDS011;30789;52.030;7.110;2022-07-21T09:44:46;10.98;;;7.32;;
34960;SDS011;30789;52.030;7.110;2022-07-21T09:47:13;7.50;;;5.90;;
34960;SDS011;30789;52.030;7.110;2022-07-21T09:49:41;6.80;;;5.63;;
34960;SDS011;30789;52.030;7.110;2022-07-21T09:52:17;6.80;;;6.00;;
34960;SDS011;30789;52.030;7.110;2022-07-21T09:54:43;8.35;;;5.10;;
34960;SDS011;30789;52.030;7.110;2022-07-21T09:57:10;7.13;;;5.85;;
34960;SDS011;30789;52.030;7.110;2022-07-21T09:59:37;7.95;;;5.57;;
34960;SDS011;30789;52.030;7.110;2022-07-21T10:02:04;6.07;;;4.80;;
34960;SDS011;30789;52.030;7.110;2022-07-21T10:04:31;7.03;;;4.50;;
34960;SDS011;30789;52.030;7.110;2022-07-21T10:07:00;6.20;;;4.35;;
34960;SDS011;30789;52.030;7.110;2022-07-21T10:09:27;8.73;;;5.03;;
34960;SDS011;30789;52.030;7.110;2022-07-21T10:11:53;6.05;;;4.78;;
34960;SDS011;30789;52.030;7.110;2022-07-21T10:14:20;5.50;;;4.53;;
34960;SDS011;30789;52.030;7.110;2022-07-21T10:16:46;9.68;;;5.10;;
34960;SDS011;30789;52.030;7.110;2022-07-21T10:19:13;6.68;;;5.15;;
34960;SDS011;30789;52.030;7.110;2022-07-21T10:21:41;6.05;;;4.72;;
34960;SDS011;30789;52.030;7.110;2022-07-21T10:24:10;5.80;;;5.20;;
34960;SDS011;30789;52.030;7.110;2022-07-21T10:26:37;7.63;;;5.50;;
34960;SDS011;30789;52.030;7.110;2022-07-21T10:29:03;8.02;;;5.38;;
34960;SDS011;30789;52.030;7.110;2022-07-21T10:31:30;8.02;;;5.50;;
34960;SDS011;30789;52.030;7.110;2022-07-21T10:33:57;5.85;;;4.93;;
34960;SDS011;30789;52.030;7.110;2022-07-21T10:36:40;8.02;;;5.60;;
34960;SDS011;30789;52.030;7.110;2022-07-21T10:41:49;5.55;;;4.93;;
34960;SDS011;30789;52.030;7.110;2022-07-21T10:47:02;6.13;;;4.10;;
34960;SDS011;30789;52.030;7.110;2022-07-21T10:49:46;8.63;;;5.20;;
34960;SDS011;30789;52.030;7.110;2022-07-21T10:55:13;6.82;;;4.18;;
34960;SDS011;30789;52.030;7.110;2022-07-21T10:57:43;6.85;;;4.38;;
34960;SDS011;30789;52.030;7.110;2022-07-21T11:02:57;8.80;;;4.68;;
34960;SDS011;30789;52.030;7.110;2022-07-21T11:05:25;6.68;;;4.50;;
34960;SDS011;30789;52.030;7.110;2022-07-21T11:08:11;8.32;;;6.18;;
34960;SDS011;30789;52.030;7.110;2022-07-21T11:10:38;8.13;;;5.28;;
34960;SDS011;30789;52.030;7.110;2022-07-21T11:13:05;6.95;;;5.15;;
34960;SDS011;30789;52.030;7.110;2022-07-21T11:15:45;7.38;;;5.10;;
34960;SDS011;30789;52.030;7.110;2022-07-21T11:18:15;9.02;;;5.88;;
34960;SDS011;30789;52.030;7.110;2022-07-21T11:20:42;9.90;;;6.65;;
34960;SDS011;30789;52.030;7.110;2022-07-21T11:23:09;7.55;;;6.22;;
34960;SDS011;30789;52.030;7.110;2022-07-21T11:25:35;11.13;;;6.22;;
34960;SDS011;30789;52.030;7.110;2022-07-21T11:28:02;11.68;;;6.95;;
34960;SDS011;30789;52.030;7.110;2022-07-21T11:30:29;8.65;;;6.75;;
34960;SDS011;30789;52.030;7.110;2022-07-21T11:32:56;7.95;;;6.18;;
34960;SDS011;30789;52.030;7.110;2022-07-21T11:35:22;6.53;;;5.80;;
34960;SDS011;30789;52.030;7.110;2022-07-21T11:37:49;9.98;;;6.63;;
34960;SDS011;30789;52.030;7.110;2022-07-21T11:40:16;7.07;;;5.63;;
34960;SDS011;30789;52.030;7.110;2022-07-21T11:42:43;9.02;;;7.00;;
34960;SDS011;30789;52.030;7.110;2022-07-21T11:45:10;8.27;;;7.40;;
34960;SDS011;30789;52.030;7.110;2022-07-21T11:47:38;12.38;;;8.35;;
34960;SDS011;30789;52.030;7.110;2022-07-21T11:50:05;9.80;;;7.28;;
34960;SDS011;30789;52.030;7.110;2022-07-21T11:52:33;13.75;;;7.88;;
34960;SDS011;30789;52.030;7.110;2022-07-21T11:55:02;10.23;;;8.07;;
34960;SDS011;30789;52.030;7.110;2022-07-21T11:57:29;11.00;;;8.00;;
34960;SDS011;30789;52.030;7.110;2022-07-21T11:59:56;11.82;;;8.23;;
34960;SDS011;30789;52.030;7.110;2022-07-21T12:02:23;8.45;;;7.47;;
34960;SDS011;30789;52.030;7.110;2022-07-21T12:04:51;10.27;;;7.72;;
34960;SDS011;30789;52.030;7.110;2022-07-21T12:07:19;8.93;;;7.75;;
34960;SDS011;30789;52.030;7.110;2022-07-21T12:09:46;10.60;;;7.32;;
34960;SDS011;30789;52.030;7.110;2022-07-21T12:12:13;9.68;;;7.68;;
34960;SDS011;30789;52.030;7.110;2022-07-21T12:14:40;11.60;;;7.38;;
34960;SDS011;30789;52.030;7.110;2022-07-21T12:17:06;9.93;;;7.45;;
34960;SDS011;30789;52.030;7.110;2022-07-21T12:19:33;8.25;;;6.32;;
34960;SDS011;30789;52.030;7.110;2022-07-21T12:22:00;9.38;;;6.45;;
34960;SDS011;30789;52.030;7.110;2022-07-21T12:27:11;5.20;;;4.13;;
34960;SDS011;30789;52.030;7.110;2022-07-21T12:29:38;4.40;;;4.00;;
34960;SDS011;30789;52.030;7.110;2022-07-21T12:32:04;5.95;;;4.90;;
34960;SDS011;30789;52.030;7.110;2022-07-21T12:34:30;6.80;;;4.40;;
34960;SDS011;30789;52.030;7.110;2022-07-21T12:36:57;4.78;;;4.28;;
34960;SDS011;30789;52.030;7.110;2022-07-21T12:39:26;6.05;;;4.13;;
34960;SDS011;30789;52.030;7.110;2022-07-21T12:42:11;5.07;;;4.05;;
34960;SDS011;30789;52.030;7.110;2022-07-21T12:44:52;4.43;;;3.85;;
34960;SDS011;30789;52.030;7.110;2022-07-21T12:47:20;5.10;;;3.90;;
34960;SDS011;30789;52.030;7.110;2022-07-21T12:49:53;4.13;;;3.72;;
34960;SDS011;30789;52.030;7.110;2022-07-21T12:52:20;5.65;;;3.72;;
34960;SDS011;30789;52.030;7.110;2022-07-21T12:54:47;3.63;;;3.00;;
34960;SDS011;30789;52.030;7.110;2022-07-21T12:57:14;3.90;;;2.65;;
34960;SDS011;30789;52.030;7.110;2022-07-21T12:59:40;3.28;;;2.88;;
34960;SDS011;30789;52.030;7.110;2022-07-21T13:02:06;4.13;;;3.45;;
34960;SDS011;30789;52.030;7.110;2022-07-21T13:04:32;3.67;;;3.30;;
34960;SDS011;30789;52.030;7.110;2022-07-21T13:06:59;6.47;;;3.95;;
34960;SDS011;30789;52.030;7.110;2022-07-21T13:09:25;3.85;;;3.45;;
34960;SDS011;30789;52.030;7.110;2022-07-21T13:11:53;5.57;;;3.70;;
34960;SDS011;30789;52.030;7.110;2022-07-21T13:14:19;5.20;;;3.60;;
34960;SDS011;30789;52.030;7.110;2022-07-21T13:16:45;4.05;;;3.60;;
34960;SDS011;30789;52.030;7.110;2022-07-21T13:19:12;4.28;;;3.88;;
34960;SDS011;30789;52.030;7.110;2022-07-21T13:21:38;3.58;;;3.25;;
34960;SDS011;30789;52.030;7.110;2022-07-21T13:24:04;4.47;;;3.60;;
34960;SDS011;30789;52.030;7.110;2022-07-21T13:26:31;6.30;;;3.78;;
34960;SDS011;30789;52.030;7.110;2022-07-21T13:28:59;4.38;;;3.70;;
34960;SDS011;30789;52.030;7.110;2022-07-21T13:31:27;3.88;;;3.47;;
34960;SDS011;30789;52.030;7.110;2022-07-21T13:33:53;4.03;;;3.63;;
34960;SDS011;30789;52.030;7.110;2022-07-21T13:36:20;4.10;;;3.60;;
34960;SDS011;30789;52.030;7.110;2022-07-21T13:38:46;4.90;;;3.33;;
34960;SDS011;30789;52.030;7.110;2022-07-21T13:41:12;3.38;;;3.08;;
34960;SDS011;30789;52.030;7.110;2022-07-21T13:43:41;3.67;;;3.33;;
34960;SDS011;30789;52.030;7.110;2022-07-21T13:46:09;3.45;;;3.00;;
34960;SDS011;30789;52.030;7.110;2022-07-21T13:48:35;3.75;;;3.30;;
34960;SDS011;30789;52.030;7.110;2022-07-21T13:51:02;3.42;;;3.13;;
34960;SDS011;30789;52.030;7.110;2022-07-21T13:53:28;3.90;;;3.50;;
34960;SDS011;30789;52.030;7.110;2022-07-21T13:55:54;3.45;;;3.15;;
34960;SDS011;30789;52.030;7.110;2022-07-21T13:58:21;3.20;;;2.90;;
34960;SDS011;30789;52.030;7.110;2022-07-21T14:00:47;6.57;;;3.45;;
34960;SDS011;30789;52.030;7.110;2022-07-21T14:03:16;3.80;;;3.22;;
34960;SDS011;30789;52.030;7.110;2022-07-21T14:05:42;4.30;;;3.72;;
34960;SDS011;30789;52.030;7.110;2022-07-21T14:08:08;3.15;;;2.85;;
34960;SDS011;30789;52.030;7.110;2022-07-21T14:10:35;4.60;;;3.53;;
34960;SDS011;30789;52.030;7.110;2022-07-21T14:13:01;4.15;;;3.85;;
34960;SDS011;30789;52.030;7.110;2022-07-21T14:15:27;3.28;;;2.97;;
34960;SDS011;30789;52.030;7.110;2022-07-21T14:17:54;3.55;;;3.00;;
34960;SDS011;30789;52.030;7.110;2022-07-21T14:20:21;3.65;;;3.35;;
34960;SDS011;30789;52.030;7.110;2022-07-21T14:22:48;3.95;;;3.55;;
34960;SDS011;30789;52.030;7.110;2022-07-21T14:25:14;3.55;;;3.20;;
34960;SDS011;30789;52.030;7.110;2022-07-21T14:27:47;3.53;;;3.22;;
34960;SDS011;30789;52.030;7.110;2022-07-21T14:30:14;3.00;;;2.80;;
34960;SDS011;30789;52.030;7.110;2022-07-21T14:32:40;3.65;;;3.33;;
34960;SDS011;30789;52.030;7.110;2022-07-21T14:35:07;3.88;;;3.40;;
34960;SDS011;30789;52.030;7.110;2022-07-21T14:37:35;3.55;;;3.15;;
34960;SDS011;30789;52.030;7.110;2022-07-21T14:40:01;3.42;;;3.10;;
34960;SDS011;30789;52.030;7.110;2022-07-21T14:42:28;2.97;;;2.75;;
34960;SDS011;30789;52.030;7.110;2022-07-21T14:44:54;3.80;;;3.00;;
34960;SDS011;30789;52.030;7.110;2022-07-21T14:47:21;4.85;;;3.70;;
34960;SDS011;30789;52.030;7.110;2022-07-21T14:49:48;4.38;;;3.80;;